Time;durP1;ratioP1;P1;durP2;ratioP2;P2;SDS_P1;SDS_P2;PMS_P1;PMS_P2;Temp;Humidity;BMP_temperature;BMP_pressure;BME280_temperature;BME280_humidity;BME280_pressure;Samples;Min_cycle;Max_cycle;Signal;HPM_P1;HPM_P2
2021/09/29 00:00:13;;;;;;;;;1.00;1.00;;;;;21.17;41.76;101207.31;5083118;27;45283;-54
2021/09/29 00:02:38;;;;;;;;;2.50;1.00;;;;;21.17;41.75;101205.50;5098766;27;45244;-56
2021/09/29 00:05:05;;;;;;;;;2.00;2.00;;;;;21.16;41.75;101201.19;5083113;27;45292;-55
2021/09/29 00:07:30;;;;;;;;;2.75;1.50;;;;;21.17;42.03;101197.59;5082519;28;45398;-55
2021/09/29 00:09:55;;;;;;;;;3.00;1.75;;;;;21.18;41.48;101185.28;5082776;27;45689;-55
2021/09/29 00:12:22;;;;;;;;;0.75;0.50;;;;;21.17;41.78;101183.59;5082972;27;45364;-55
2021/09/29 00:14:48;;;;;;;;;1.00;1.00;;;;;21.17;41.96;101178.31;5083135;27;45576;-55
2021/09/29 00:17:13;;;;;;;;;1.00;1.00;;;;;21.17;42.00;101175.69;5082899;27;46361;-54
2021/09/29 00:19:38;;;;;;;;;1.00;1.00;;;;;21.17;42.05;101183.59;5082686;27;45496;-55
2021/09/29 00:22:05;;;;;;;;;0.25;0.25;;;;;21.16;42.21;101184.50;5082751;27;45861;-55
2021/09/29 00:24:30;;;;;;;;;2.25;0.00;;;;;21.16;41.72;101184.50;5082948;27;45469;-55
2021/09/29 00:26:55;;;;;;;;;3.00;1.25;;;;;21.16;42.03;101187.16;5098101;27;46094;-54
2021/09/29 00:29:21;;;;;;;;;1.00;1.00;;;;;21.15;41.90;101183.69;5082565;27;45362;-56
2021/09/29 00:31:46;;;;;;;;;2.50;1.00;;;;;21.15;42.11;101185.44;5083078;27;45366;-52
2021/09/29 00:34:13;;;;;;;;;1.50;1.00;;;;;21.14;42.20;101189.00;5082614;27;45299;-53
2021/09/29 00:36:42;;;;;;;;;0.00;0.00;;;;;21.15;42.28;101188.06;5078043;28;46474;-55
2021/09/29 00:39:08;;;;;;;;;1.00;1.00;;;;;21.13;41.77;101182.91;5094892;27;45779;-54
2021/09/29 00:41:34;;;;;;;;;1.00;1.00;;;;;21.14;42.00;101175.81;5079310;27;45528;-54
2021/09/29 00:44:01;;;;;;;;;1.00;1.00;;;;;21.13;41.93;101182.91;5079408;27;45326;-54
2021/09/29 00:46:26;;;;;;;;;2.00;1.00;;;;;21.13;42.20;101163.56;5078719;27;45352;-52
2021/09/29 00:48:51;;;;;;;;;1.00;0.00;;;;;21.12;42.14;101156.59;5079012;27;45310;-55
2021/09/29 00:51:17;;;;;;;;;3.00;1.00;;;;;21.12;42.32;101153.97;5079345;27;45350;-55
2021/09/29 00:53:42;;;;;;;;;1.00;1.00;;;;;21.13;42.13;101155.66;5079187;27;45476;-55
2021/09/29 00:56:08;;;;;;;;;1.25;1.25;;;;;21.12;42.10;101164.50;5078821;27;46996;-55
2021/09/29 00:58:34;;;;;;;;;1.00;1.00;;;;;21.11;42.12;101158.41;5078874;27;45185;-54
2021/09/29 01:00:59;;;;;;;;;0.25;0.25;;;;;21.13;42.03;101160.94;5078920;28;45452;-55
2021/09/29 01:03:25;;;;;;;;;0.00;0.00;;;;;21.11;42.24;101158.41;5079093;27;45515;-55
2021/09/29 01:05:53;;;;;;;;;2.00;2.00;;;;;21.11;42.14;101152.28;5078522;27;45296;-54
2021/09/29 01:08:29;;;;;;;;;2.00;0.75;;;;;21.11;42.24;101147.03;5078864;27;45829;-55
2021/09/29 01:11:11;;;;;;;;;0.75;0.75;;;;;21.09;42.42;101143.59;5094717;27;45380;-56
2021/09/29 01:13:46;;;;;;;;;1.00;1.00;;;;;21.10;42.34;101140.03;5078999;27;45369;-54
2021/09/29 01:16:13;;;;;;;;;1.25;1.00;;;;;21.09;42.49;101138.34;5078465;28;46203;-54
2021/09/29 01:18:43;;;;;;;;;1.00;0.00;;;;;21.09;42.49;101148.88;5078472;27;45720;-54
2021/09/29 01:21:11;;;;;;;;;1.50;0.75;;;;;21.07;42.21;101135.75;5078412;27;45315;-55
2021/09/29 01:23:58;;;;;;;;;1.00;1.00;;;;;21.09;42.31;101143.59;5078812;27;45320;-55
2021/09/29 01:26:36;;;;;;;;;0.75;0.75;;;;;21.08;42.38;101137.47;5078356;27;46397;-55
2021/09/29 01:29:04;;;;;;;;;0.00;0.00;;;;;21.10;42.80;101132.13;5076978;28;45366;-54
2021/09/29 01:31:32;;;;;;;;;0.25;0.25;;;;;21.09;42.33;101146.25;5077813;27;45386;-56
2021/09/29 01:33:58;;;;;;;;;0.75;0.75;;;;;21.08;42.75;101132.19;5078496;27;45365;-54
2021/09/29 01:36:24;;;;;;;;;2.00;1.00;;;;;21.09;42.59;101133.06;5078205;27;46640;-56
2021/09/29 01:38:56;;;;;;;;;2.75;0.25;;;;;21.10;42.83;101126.88;5078615;27;45358;-53
2021/09/29 01:41:23;;;;;;;;;3.00;1.00;;;;;21.09;43.05;101125.16;5078363;27;45374;-56
2021/09/29 01:43:49;;;;;;;;;0.25;0.25;;;;;21.09;42.48;101122.53;5078960;28;45433;-56
2021/09/29 01:46:15;;;;;;;;;0.50;0.00;;;;;21.07;43.00;101121.75;5077613;27;45894;-55
2021/09/29 01:48:50;;;;;;;;;0.00;0.00;;;;;21.07;42.64;101113.84;5078310;27;45338;-56
2021/09/29 01:51:16;;;;;;;;;1.50;0.00;;;;;21.08;42.89;101118.19;5078524;27;45896;-53
2021/09/29 01:53:44;;;;;;;;;0.75;0.75;;;;;21.06;43.07;101117.41;5078265;27;45222;-55
2021/09/29 01:56:10;;;;;;;;;1.00;0.75;;;;;21.07;42.95;101127.03;5077802;27;46498;-56
2021/09/29 01:58:35;;;;;;;;;0.00;0.00;;;;;21.07;43.04;101116.47;5077751;28;45441;-55
2021/09/29 02:01:01;;;;;;;;;0.75;0.00;;;;;21.09;42.99;101122.53;5077840;27;45386;-56
2021/09/29 02:03:26;;;;;;;;;2.50;0.00;;;;;21.07;42.77;101119.13;5078208;27;45382;-55
2021/09/29 02:05:52;;;;;;;;;1.00;0.25;;;;;21.07;42.94;101114.69;5077561;27;46481;-54
2021/09/29 02:08:18;;;;;;;;;0.25;0.25;;;;;21.08;42.80;101115.56;5077884;27;45339;-56
2021/09/29 02:10:43;;;;;;;;;0.25;0.25;;;;;21.07;43.41;101116.47;5077821;27;45387;-57
2021/09/29 02:13:08;;;;;;;;;0.00;0.00;;;;;21.06;43.13;101107.69;5077954;27;45343;-56
2021/09/29 02:15:34;;;;;;;;;2.00;1.00;;;;;21.07;43.30;101111.22;5077617;27;46175;-54
2021/09/29 02:17:59;;;;;;;;;1.00;1.00;;;;;21.06;43.03;101106.88;5077648;27;45467;-55
2021/09/29 02:20:25;;;;;;;;;1.00;1.00;;;;;21.07;43.61;101103.31;5077831;27;45379;-56
2021/09/29 02:22:50;;;;;;;;;1.50;0.00;;;;;21.06;43.29;101101.59;5076919;28;45257;-55
2021/09/29 02:25:16;;;;;;;;;1.00;1.00;;;;;21.06;43.10;101098.97;5077310;27;46300;-54
2021/09/29 02:27:41;;;;;;;;;1.00;1.00;;;;;21.07;43.47;101106.78;5077367;27;45377;-55
2021/09/29 02:30:08;;;;;;;;;0.75;0.75;;;;;21.08;43.54;101110.28;5077581;27;45291;-52
2021/09/29 02:32:36;;;;;;;;;0.25;0.00;;;;;21.08;43.82;101107.66;5077596;27;45486;-53
2021/09/29 02:35:03;;;;;;;;;1.00;0.75;;;;;21.06;43.62;101105.06;5077272;27;45658;-53
2021/09/29 02:37:28;;;;;;;;;0.00;0.00;;;;;21.07;43.55;101103.31;5077218;27;45836;-54
2021/09/29 02:39:53;;;;;;;;;1.00;0.25;;;;;21.06;43.75;101102.44;5077544;27;45305;-54
2021/09/29 02:42:19;;;;;;;;;1.50;1.00;;;;;21.05;44.09;101105.16;5077751;27;45544;-55
2021/09/29 02:44:45;;;;;;;;;1.00;0.00;;;;;21.04;43.95;101106.97;5077095;27;45670;-52
2021/09/29 02:47:10;;;;;;;;;0.00;0.00;;;;;21.06;44.43;101106.88;5077036;27;45364;-54
2021/09/29 02:49:35;;;;;;;;;0.00;0.00;;;;;21.05;44.54;101119.22;5077346;27;45369;-53
2021/09/29 02:52:01;;;;;;;;;1.00;1.00;;;;;21.05;44.05;101116.56;5077329;27;45295;-53
2021/09/29 02:54:26;;;;;;;;;0.50;0.00;;;;;21.05;44.25;101106.03;5076991;27;45404;-52
2021/09/29 02:56:51;;;;;;;;;1.00;1.00;;;;;21.07;44.23;101108.56;5077403;27;45324;-56
2021/09/29 02:59:17;;;;;;;;;0.50;0.50;;;;;21.06;44.48;101117.41;5076168;27;45284;-54
2021/09/29 03:01:43;;;;;;;;;0.00;0.00;;;;;21.07;44.30;101116.47;5077347;27;45218;-56
2021/09/29 03:04:09;;;;;;;;;0.50;0.25;;;;;21.06;44.44;101112.97;5076743;27;47067;-54
2021/09/29 03:06:34;;;;;;;;;0.00;0.00;;;;;21.06;44.80;101107.69;5076747;27;45393;-55
2021/09/29 03:09:00;;;;;;;;;1.00;0.00;;;;;21.06;44.60;101112.13;5077019;27;45681;-57
2021/09/29 03:11:26;;;;;;;;;1.00;1.00;;;;;21.08;44.80;101113.75;5092862;27;45333;-54
2021/09/29 03:13:52;;;;;;;;;0.25;0.00;;;;;21.08;44.77;101118.19;5077013;27;46751;-56
2021/09/29 03:16:17;;;;;;;;;0.75;0.75;;;;;21.08;44.70;101126.09;5076665;27;45945;-57
2021/09/29 03:18:43;;;;;;;;;0.50;0.50;;;;;21.08;44.70;101112.91;5092536;27;45232;-54
2021/09/29 03:21:09;;;;;;;;;3.25;0.00;;;;;21.08;44.33;101120.81;5076807;27;45628;-55
2021/09/29 03:23:35;;;;;;;;;1.00;0.00;;;;;21.07;45.10;101109.41;5076548;27;45489;-53
2021/09/29 03:26:00;;;;;;;;;1.75;0.50;;;;;21.07;44.90;101104.13;5076577;27;45401;-55
2021/09/29 03:28:26;;;;;;;;;2.25;1.00;;;;;21.07;44.74;101108.56;5076865;27;45381;-56
2021/09/29 03:30:52;;;;;;;;;1.00;1.00;;;;;21.07;45.38;101105.94;5075907;28;45469;-57
2021/09/29 03:33:17;;;;;;;;;1.00;0.75;;;;;21.06;45.43;101096.31;5076485;27;46346;-56
2021/09/29 03:35:43;;;;;;;;;0.75;0.75;;;;;21.07;45.53;101103.31;5076434;27;45288;-55
2021/09/29 03:38:09;;;;;;;;;1.50;0.25;;;;;21.07;45.11;101109.41;5076627;28;45173;-55
2021/09/29 03:40:34;;;;;;;;;1.75;0.50;;;;;21.08;45.33;101102.38;5076653;27;45643;-56
2021/09/29 03:43:00;;;;;;;;;1.00;1.00;;;;;21.08;45.16;101105.00;5076571;27;45622;-57
2021/09/29 03:45:25;;;;;;;;;1.00;1.00;;;;;21.06;45.14;101106.88;5076662;27;45437;-56
2021/09/29 03:47:51;;;;;;;;;0.25;0.25;;;;;21.07;45.74;101116.47;5076452;28;45330;-57
2021/09/29 03:50:17;;;;;;;;;0.00;0.00;;;;;21.05;45.62;101113.94;5076614;27;45359;-56
2021/09/29 03:52:42;;;;;;;;;0.00;0.00;;;;;21.06;45.95;101117.41;5076216;27;46176;-56
2021/09/29 03:55:08;;;;;;;;;0.00;0.00;;;;;21.06;45.56;101120.03;5076381;27;45337;-55
2021/09/29 03:57:34;;;;;;;;;0.25;0.25;;;;;21.07;45.66;101135.75;5076315;27;45276;-56
2021/09/29 04:00:00;;;;;;;;;2.00;1.00;;;;;21.06;45.76;101120.88;5076266;27;45452;-56
2021/09/29 04:02:26;;;;;;;;;1.00;1.00;;;;;21.05;45.76;101116.56;5076446;27;45478;-55
2021/09/29 04:04:51;;;;;;;;;0.00;0.00;;;;;21.06;45.89;101122.69;5076086;27;45347;-57
2021/09/29 04:07:16;;;;;;;;;0.00;0.00;;;;;21.07;45.62;101129.66;5076127;27;45453;-56
2021/09/29 04:09:42;;;;;;;;;1.25;0.00;;;;;21.06;45.77;101125.31;5077585;27;45390;-56
2021/09/29 04:12:07;;;;;;;;;1.00;1.00;;;;;21.08;45.88;101126.94;5079529;27;46007;-57
2021/09/29 04:14:33;;;;;;;;;1.00;0.75;;;;;21.09;46.10;101125.16;5079523;27;45286;-55
2021/09/29 04:16:58;;;;;;;;;0.00;0.00;;;;;21.06;45.94;101126.16;5095403;27;45307;-55
2021/09/29 04:19:24;;;;;;;;;2.00;1.00;;;;;21.08;45.87;101131.34;5080024;27;45172;-56
2021/09/29 04:21:49;;;;;;;;;1.00;1.00;;;;;21.07;45.95;101135.75;5079345;27;45615;-57
2021/09/29 04:24:14;;;;;;;;;0.00;0.00;;;;;21.08;45.73;101131.34;5079408;27;45274;-56
2021/09/29 04:26:40;;;;;;;;;0.00;0.00;;;;;21.08;46.27;101137.47;5079399;27;45454;-56
2021/09/29 04:29:06;;;;;;;;;1.00;1.00;;;;;21.08;46.14;101136.63;5079716;28;45333;-55
2021/09/29 04:31:32;;;;;;;;;0.00;0.00;;;;;21.08;45.99;101134.84;5079180;27;46622;-56
2021/09/29 04:33:57;;;;;;;;;1.00;1.00;;;;;21.07;46.23;101137.56;5095318;27;45350;-56
2021/09/29 04:36:23;;;;;;;;;0.25;0.25;;;;;21.07;46.21;101141.03;5079558;27;45379;-53
2021/09/29 04:38:49;;;;;;;;;0.00;0.00;;;;;21.08;46.33;101139.25;5079525;28;45387;-56
2021/09/29 04:41:14;;;;;;;;;0.00;0.00;;;;;21.06;46.36;101136.69;5079105;27;46593;-56
2021/09/29 04:43:39;;;;;;;;;0.00;0.00;;;;;21.05;46.71;101137.66;5079128;27;45416;-56
2021/09/29 04:46:05;;;;;;;;;1.00;1.00;;;;;21.06;46.30;101143.75;5079129;27;45308;-56
2021/09/29 04:48:30;;;;;;;;;2.00;0.00;;;;;21.06;46.21;101149.88;5079156;27;45465;-55
2021/09/29 04:50:55;;;;;;;;;0.00;0.00;;;;;21.06;46.31;101157.78;5079058;27;46500;-55
2021/09/29 04:53:21;;;;;;;;;1.50;0.00;;;;;21.06;46.51;101163.03;5079081;27;45274;-56
2021/09/29 04:55:47;;;;;;;;;0.00;0.00;;;;;21.06;46.72;101154.31;5078926;27;45165;-56
2021/09/29 04:58:12;;;;;;;;;1.00;1.00;;;;;21.07;46.75;101156.00;5079187;27;45540;-54
2021/09/29 05:00:38;;;;;;;;;0.00;0.00;;;;;21.08;46.55;101170.91;5078600;27;46111;-53
2021/09/29 05:03:03;;;;;;;;;0.00;0.00;;;;;21.06;46.48;101188.56;5078710;27;45611;-56
2021/09/29 05:05:33;;;;;;;;;0.00;0.00;;;;;21.08;46.98;101184.06;5079030;27;45367;-55
2021/09/29 05:08:01;;;;;;;;;0.00;0.00;;;;;21.08;46.88;101195.44;5079167;27;45480;-56
2021/09/29 05:10:50;;;;;;;;;0.00;0.00;;;;;21.10;46.80;101195.38;5078847;27;46821;-56
2021/09/29 05:13:17;;;;;;;;;0.00;0.00;;;;;21.11;47.02;101199.72;5078673;27;45421;-55
2021/09/29 05:15:43;;;;;;;;;0.00;0.00;;;;;21.10;46.68;101219.09;5078611;27;45285;-56
2021/09/29 05:18:08;;;;;;;;;0.00;0.00;;;;;21.10;46.78;101206.78;5078795;27;45263;-56
2021/09/29 05:20:34;;;;;;;;;2.00;0.00;;;;;21.12;46.45;101204.91;5078156;27;46024;-57
2021/09/29 05:22:59;;;;;;;;;1.00;1.00;;;;;21.11;46.57;101205.84;5078108;27;45540;-55
2021/09/29 05:25:24;;;;;;;;;0.00;0.00;;;;;21.10;46.94;101209.41;5078712;27;45412;-55
2021/09/29 05:27:51;;;;;;;;;0.00;0.00;;;;;21.11;46.93;101205.00;5078621;27;45502;-55
2021/09/29 05:30:17;;;;;;;;;0.00;0.00;;;;;21.11;46.75;101210.28;5094048;27;45467;-56
2021/09/29 05:32:42;;;;;;;;;2.00;0.00;;;;;21.10;47.13;101224.38;5078341;27;45232;-55
2021/09/29 05:35:07;;;;;;;;;2.00;1.00;;;;;21.11;46.88;101220.81;5078308;27;45405;-56
2021/09/29 05:37:33;;;;;;;;;0.75;0.75;;;;;21.12;46.84;101225.13;5078443;28;45433;-55
2021/09/29 05:39:58;;;;;;;;;0.25;0.25;;;;;21.07;46.55;101224.53;5078413;27;45322;-52
2021/09/29 05:42:23;;;;;;;;;0.50;0.00;;;;;21.11;47.09;101239.25;5078081;27;45335;-55
2021/09/29 05:44:49;;;;;;;;;0.00;0.00;;;;;21.10;46.98;101251.56;5078399;27;45317;-56
2021/09/29 05:47:14;;;;;;;;;0.25;0.00;;;;;21.10;47.02;101245.47;5078364;27;45492;-55
2021/09/29 05:49:40;;;;;;;;;0.00;0.00;;;;;21.09;46.81;101249.88;5078055;27;46079;-57
2021/09/29 05:52:07;;;;;;;;;0.00;0.00;;;;;21.10;46.90;101258.66;5076769;28;45495;-56
2021/09/29 05:54:32;;;;;;;;;0.00;0.00;;;;;21.09;46.48;101249.88;5078421;27;45274;-55
2021/09/29 05:56:58;;;;;;;;;0.50;0.50;;;;;21.10;46.75;101266.56;5078313;27;45432;-55
2021/09/29 05:59:23;;;;;;;;;0.00;0.00;;;;;21.09;46.87;101264.84;5077611;27;45451;-55
2021/09/29 06:01:48;;;;;;;;;0.00;0.00;;;;;21.10;46.77;101271.81;5077882;27;45349;-55
2021/09/29 06:04:14;;;;;;;;;0.00;0.00;;;;;21.10;46.77;101274.47;5078021;27;45290;-55
2021/09/29 06:06:39;;;;;;;;;0.00;0.00;;;;;21.09;46.89;101272.75;5078052;27;45475;-56
2021/09/29 06:09:05;;;;;;;;;0.25;0.25;;;;;21.08;47.09;101285.06;5077685;27;46083;-55
2021/09/29 06:11:30;;;;;;;;;0.00;0.00;;;;;21.07;46.74;101285.97;5077885;27;45242;-56
2021/09/29 06:14:01;;;;;;;;;0.00;0.00;;;;;21.10;46.73;101295.53;5077899;27;45220;-51
2021/09/29 06:16:26;;;;;;;;;0.00;0.00;;;;;21.08;46.89;101292.97;5078074;27;45325;-54
2021/09/29 06:18:51;;;;;;;;;0.00;0.00;;;;;21.10;46.68;101303.44;5077565;28;45500;-53
2021/09/29 06:21:18;;;;;;;;;0.00;0.00;;;;;21.07;46.84;101314.97;5077636;27;45333;-55
2021/09/29 06:23:43;;;;;;;;;0.00;0.00;;;;;21.08;46.87;101315.84;5077661;27;45539;-55
2021/09/29 06:26:09;;;;;;;;;0.00;0.00;;;;;21.09;46.82;101328.09;5077785;27;45361;-55
2021/09/29 06:28:37;;;;;;;;;0.00;0.00;;;;;21.09;46.77;101330.72;5077516;27;46134;-54
2021/09/29 06:31:07;;;;;;;;;0.00;0.00;;;;;21.10;47.02;101348.25;5093173;27;45691;-55
2021/09/29 06:33:33;;;;;;;;;0.00;0.00;;;;;21.08;46.95;101352.75;5076649;28;45421;-55
2021/09/29 06:36:00;;;;;;;;;2.00;1.00;;;;;21.09;46.80;101351.81;5077695;27;45510;-55
2021/09/29 06:38:25;;;;;;;;;1.00;0.00;;;;;21.08;46.40;101358.84;5077491;28;45319;-56
2021/09/29 06:40:51;;;;;;;;;0.00;0.00;;;;;21.09;47.03;101359.72;5093157;27;45412;-53
2021/09/29 06:43:17;;;;;;;;;0.00;0.00;;;;;21.10;46.69;101361.44;5077365;27;45215;-56
2021/09/29 06:45:42;;;;;;;;;0.00;0.00;;;;;21.11;46.60;101378.97;5077423;28;45165;-55
2021/09/29 06:48:10;;;;;;;;;0.00;0.00;;;;;21.10;46.76;101375.44;5076952;27;45371;-55
2021/09/29 06:50:36;;;;;;;;;0.00;0.00;;;;;21.11;46.74;101378.97;5077374;27;45390;-55
2021/09/29 06:53:01;;;;;;;;;0.00;0.00;;;;;21.12;46.58;101380.63;5077330;27;45681;-54
2021/09/29 06:55:26;;;;;;;;;0.00;0.00;;;;;21.11;46.78;101384.22;5077319;27;45532;-54
2021/09/29 06:57:52;;;;;;;;;0.00;0.00;;;;;21.11;46.78;101379.78;5076815;27;47180;-53
2021/09/29 07:00:17;;;;;;;;;2.00;0.00;;;;;21.11;46.68;101387.69;5076704;27;45359;-53
2021/09/29 07:02:44;;;;;;;;;0.00;0.00;;;;;21.12;46.92;101397.31;5077012;27;45357;-54
2021/09/29 07:05:10;;;;;;;;;0.00;0.00;;;;;21.11;46.54;101400.88;5077253;27;45441;-55
2021/09/29 07:07:36;;;;;;;;;0.00;0.00;;;;;21.11;46.28;101403.50;5076922;27;46165;-55
2021/09/29 07:10:04;;;;;;;;;0.00;0.00;;;;;21.13;46.50;101413.97;5076883;27;45279;-54
2021/09/29 07:12:29;;;;;;;;;0.00;0.00;;;;;21.13;46.73;101408.69;5076859;27;45447;-55
2021/09/29 07:14:55;;;;;;;;;0.00;0.00;;;;;21.12;46.66;101407.00;5077068;27;45587;-55
2021/09/29 07:17:23;;;;;;;;;0.00;0.00;;;;;21.12;46.54;101409.63;5092544;27;47270;-55
2021/09/29 07:19:52;;;;;;;;;1.50;0.25;;;;;21.12;46.75;101412.25;5076580;27;45248;-55
2021/09/29 07:22:18;;;;;;;;;0.75;0.50;;;;;21.12;46.40;101410.50;5076880;28;45437;-54
2021/09/29 07:24:43;;;;;;;;;1.00;1.00;;;;;21.12;46.65;101421.03;5077021;27;45508;-55
2021/09/29 07:27:08;;;;;;;;;0.00;0.00;;;;;21.13;46.46;101424.50;5076337;27;46077;-54
2021/09/29 07:29:34;;;;;;;;;0.00;0.00;;;;;21.12;46.34;101417.53;5076950;27;45281;-56
2021/09/29 07:31:59;;;;;;;;;0.00;0.00;;;;;21.12;46.18;101422.81;5076748;27;45348;-56
2021/09/29 07:34:25;;;;;;;;;1.50;0.00;;;;;21.12;46.32;101433.34;5076636;27;45470;-55
2021/09/29 07:36:50;;;;;;;;;0.00;0.00;;;;;21.12;46.67;101438.63;5075149;28;46688;-56
2021/09/29 07:39:15;;;;;;;;;0.00;0.00;;;;;21.12;46.59;101446.53;5076387;27;45370;-53
2021/09/29 07:41:41;;;;;;;;;1.00;0.00;;;;;21.12;46.57;101454.44;5076446;27;45438;-55
2021/09/29 07:44:09;;;;;;;;;0.00;0.00;;;;;21.12;46.58;101446.53;5077331;27;45540;-55
2021/09/29 07:46:35;;;;;;;;;0.00;0.00;;;;;21.12;46.38;101455.31;5080118;27;45614;-55
2021/09/29 07:49:00;;;;;;;;;0.00;0.00;;;;;21.13;46.53;101464.06;5079780;27;45293;-55
2021/09/29 07:51:28;;;;;;;;;0.00;0.00;;;;;21.14;46.29;101465.75;5079954;27;45357;-55
2021/09/29 07:53:53;;;;;;;;;1.25;0.00;;;;;21.12;46.65;101465.84;5080107;27;45624;-54
2021/09/29 07:56:18;;;;;;;;;1.00;0.00;;;;;21.14;46.10;101474.53;5095500;27;47022;-56
2021/09/29 07:58:44;;;;;;;;;0.00;0.00;;;;;21.15;46.21;101478.91;5079750;27;45315;-54
2021/09/29 08:01:09;;;;;;;;;0.00;0.00;;;;;21.15;46.56;101484.16;5079995;27;45322;-54
2021/09/29 08:03:34;;;;;;;;;0.00;0.00;;;;;21.16;46.38;101477.97;5080147;27;45195;-56
2021/09/29 08:06:04;;;;;;;;;0.00;0.00;;;;;21.17;45.90;101484.91;5079747;27;45327;-55
2021/09/29 08:08:29;;;;;;;;;0.75;0.00;;;;;21.17;46.57;101484.09;5079647;27;45443;-53
2021/09/29 08:10:56;;;;;;;;;0.00;0.00;;;;;21.19;46.50;101497.19;5079753;27;45382;-56
2021/09/29 08:13:21;;;;;;;;;0.00;0.00;;;;;21.18;46.31;101501.59;5079964;27;45376;-55
2021/09/29 08:15:47;;;;;;;;;0.00;0.00;;;;;21.18;46.42;101506.88;5079546;27;45521;-55
2021/09/29 08:18:12;;;;;;;;;0.00;0.00;;;;;21.19;46.38;101505.97;5079423;28;45235;-54
2021/09/29 08:20:38;;;;;;;;;0.00;0.00;;;;;21.17;46.05;101498.09;5079952;28;45294;-54
2021/09/29 08:23:40;;;;;;;;;0.00;0.00;;;;;21.20;46.43;101509.44;5079804;27;45623;-54
2021/09/29 08:32:26;;;;;;;;;0.00;0.00;;;;;21.21;45.81;101527.84;5045523;27;45369;-55
2021/09/29 08:39:51;;;;;;;;;1.00;1.00;;;;;21.23;45.97;101531.22;5079518;27;45778;-53
2021/09/29 08:42:24;;;;;;;;;1.00;1.00;;;;;21.25;45.67;101542.56;5079081;27;45404;-54
2021/09/29 08:47:23;;;;;;;;;0.00;0.00;;;;;21.26;45.77;101546.91;5078891;27;45987;-57
2021/09/29 08:53:12;;;;;;;;;0.00;0.00;;;;;21.27;45.57;101559.16;5079203;27;45335;-57
2021/09/29 08:55:32;;;;;;;;;0.00;0.00;;;;;21.29;45.74;101561.72;5073860;27;45364;-56
2021/09/29 09:17:37;;;;;;;;;0.00;0.00;;;;;21.32;44.96;101582.69;5055842;27;45373;-54
2021/09/29 09:20:14;;;;;;;;;0.25;0.25;;;;;21.33;44.99;101589.66;5078546;27;45538;-55
2021/09/29 09:22:41;;;;;;;;;0.00;0.00;;;;;21.33;44.73;101589.66;5078791;28;45306;-56
2021/09/29 09:25:06;;;;;;;;;2.00;0.50;;;;;21.33;45.15;101589.66;5078577;27;45242;-54
2021/09/29 09:27:45;;;;;;;;;0.00;0.00;;;;;21.34;44.67;101604.56;5078576;27;45605;-55
2021/09/29 09:30:23;;;;;;;;;2.25;2.00;;;;;21.34;44.64;101601.91;5077372;27;46347;-53
2021/09/29 09:32:54;;;;;;;;;0.00;0.00;;;;;21.35;44.85;101608.91;5078262;27;45829;-55
2021/09/29 09:35:20;;;;;;;;;1.00;0.75;;;;;21.35;44.77;101598.38;5078357;27;45270;-55
2021/09/29 09:37:53;;;;;;;;;1.00;1.00;;;;;21.38;44.72;101618.44;5077248;28;45328;-55
2021/09/29 09:40:21;;;;;;;;;0.50;0.00;;;;;21.38;44.63;101613.19;5078139;27;46410;-54
2021/09/29 09:42:51;;;;;;;;;2.00;2.00;;;;;21.39;44.55;101606.97;5078199;27;45448;-55
2021/09/29 09:45:29;;;;;;;;;2.00;1.25;;;;;21.40;44.42;101606.06;5076832;28;45511;-53
2021/09/29 09:47:55;;;;;;;;;2.00;2.00;;;;;21.39;44.43;101613.09;5078388;27;45276;-55
2021/09/29 09:50:26;;;;;;;;;1.00;1.00;;;;;21.38;44.17;101610.53;5093836;27;45832;-56
2021/09/29 09:52:51;;;;;;;;;2.00;0.00;;;;;21.39;44.54;101613.09;5077885;27;45308;-55
2021/09/29 09:55:19;;;;;;;;;0.00;0.00;;;;;21.39;44.12;101625.44;5078103;27;45248;-53
2021/09/29 09:57:52;;;;;;;;;1.00;1.00;;;;;21.39;44.26;101630.72;5077202;28;45319;-55
2021/09/29 10:00:19;;;;;;;;;0.25;0.25;;;;;21.39;44.42;101625.44;5077835;27;45657;-54
2021/09/29 10:02:51;;;;;;;;;1.00;1.00;;;;;21.37;44.20;101622.88;5078052;27;45324;-55
2021/09/29 10:05:18;;;;;;;;;1.25;1.25;;;;;21.39;43.84;101628.91;5078059;27;45255;-53
2021/09/29 10:07:45;;;;;;;;;0.00;0.00;;;;;21.40;43.92;101632.44;5078104;27;45504;-54
2021/09/29 10:24:10;;;;;;;;;0.75;0.75;;;;;21.41;43.50;101642.06;5077571;28;45276;-54
2021/09/29 10:26:36;;;;;;;;;1.75;1.75;;;;;21.38;43.81;101643.06;5093118;27;45368;-55
2021/09/29 10:29:04;;;;;;;;;2.00;1.00;;;;;21.38;43.45;101645.69;5077617;28;45651;-55
2021/09/29 10:34:40;;;;;;;;;1.50;0.50;;;;;21.38;43.59;101650.09;5053970;27;45298;-55
2021/09/29 10:37:25;;;;;;;;;1.00;1.00;;;;;21.38;43.22;101663.28;5077205;27;45385;-54
2021/09/29 10:43:06;;;;;;;;;2.00;2.00;;;;;21.40;42.93;101701.00;5077201;28;45374;-55
2021/09/29 10:45:44;;;;;;;;;2.00;1.00;;;;;21.39;43.22;101723.00;5077202;27;45345;-55
2021/09/29 11:05:53;;;;;;;;;1.75;0.25;;;;;21.39;43.85;101730.91;5077087;27;45961;-55
2021/09/29 11:32:02;;;;;;;;;2.25;2.25;;;;;21.42;43.34;101743.97;5076678;27;45404;-55
2021/09/29 11:34:31;;;;;;;;;1.00;1.00;;;;;21.41;43.38;101744.91;5076767;27;45452;-55
2021/09/29 11:40:04;;;;;;;;;0.50;0.50;;;;;21.42;43.10;101750.09;5076332;28;45713;-54
2021/09/29 12:10:07;;;;;;;;;1.00;1.00;;;;;21.34;42.79;101798.81;5076050;28;45817;-54
2021/09/29 12:12:36;;;;;;;;;0.00;0.00;;;;;21.36;42.88;101805.75;5075963;27;45303;-54
2021/09/29 12:15:05;;;;;;;;;0.25;0.25;;;;;21.36;42.27;101794.34;5076254;27;45354;-54
2021/09/29 12:17:41;;;;;;;;;0.25;0.25;;;;;21.36;42.57;101796.97;5076391;27;45201;-56
2021/09/29 12:20:14;;;;;;;;;0.00;0.00;;;;;21.38;42.47;101795.13;5091706;27;48173;-55
2021/09/29 12:22:51;;;;;;;;;1.50;0.00;;;;;21.39;42.73;101795.06;5075953;27;45798;-56
2021/09/29 12:25:45;;;;;;;;;2.00;1.00;;;;;21.39;42.37;101789.78;5074529;28;45227;-55
2021/09/29 12:36:36;;;;;;;;;0.00;0.00;;;;;21.42;42.28;101796.72;5079193;28;45310;-56
2021/09/29 12:39:04;;;;;;;;;1.00;1.00;;;;;21.41;42.39;101798.50;5079493;27;45597;-56
2021/09/29 12:41:31;;;;;;;;;1.25;0.00;;;;;21.40;42.10;101795.94;5078919;28;45481;-54
2021/09/29 12:44:05;;;;;;;;;0.25;0.25;;;;;21.42;42.62;101794.09;5079217;27;45407;-55
2021/09/29 12:46:31;;;;;;;;;1.75;0.00;;;;;21.42;42.36;101794.09;5079081;27;45438;-54
2021/09/29 12:48:56;;;;;;;;;2.00;0.00;;;;;21.40;42.25;101796.78;5079241;27;45409;-55
2021/09/29 12:51:24;;;;;;;;;0.00;0.00;;;;;21.42;41.92;101800.19;5079177;27;45972;-56
2021/09/29 12:54:01;;;;;;;;;0.00;0.00;;;;;21.42;42.25;101800.19;5079156;27;45472;-56
2021/09/29 12:56:26;;;;;;;;;0.00;0.00;;;;;21.43;42.05;101809.00;5079045;27;45288;-54
2021/09/29 12:58:51;;;;;;;;;0.00;0.00;;;;;21.40;41.98;101802.03;5079503;27;45239;-55
2021/09/29 13:01:17;;;;;;;;;1.00;0.75;;;;;21.42;42.02;101810.75;5094371;27;46128;-55
2021/09/29 13:03:43;;;;;;;;;0.00;0.00;;;;;21.42;41.58;101813.38;5078785;27;45404;-54
2021/09/29 13:06:10;;;;;;;;;0.00;0.00;;;;;21.41;41.49;101822.22;5078798;27;45354;-54
2021/09/29 13:08:36;;;;;;;;;0.25;0.00;;;;;21.42;42.24;101816.03;5079020;27;45592;-56
2021/09/29 13:11:02;;;;;;;;;0.00;0.00;;;;;21.42;41.63;101821.31;5078477;27;46288;-54
2021/09/29 13:13:30;;;;;;;;;0.00;0.00;;;;;21.40;41.63;101824.94;5078656;28;45321;-55
2021/09/29 13:15:58;;;;;;;;;1.00;0.00;;;;;21.39;41.66;101842.53;5078945;27;45354;-54
2021/09/29 13:18:35;;;;;;;;;0.00;0.00;;;;;21.40;41.92;101853.94;5094896;27;45591;-55
2021/09/29 13:21:09;;;;;;;;;0.00;0.00;;;;;21.40;41.66;101869.78;5078717;27;45865;-54
2021/09/29 13:36:55;;;;;;;;;0.00;0.00;;;;;21.35;41.29;101887.56;5078680;28;45429;-53
2021/09/29 13:39:21;;;;;;;;;0.00;0.00;;;;;21.35;41.42;101872.59;5078545;27;45390;-54
2021/09/29 13:41:54;;;;;;;;;0.00;0.00;;;;;21.35;41.16;101869.97;5077415;28;46961;-55
2021/09/29 13:44:20;;;;;;;;;2.00;0.00;;;;;21.37;40.73;101875.16;5078087;27;45337;-56
2021/09/29 13:46:46;;;;;;;;;1.00;0.25;;;;;21.36;40.78;101884.00;5078214;28;45453;-53
2021/09/29 13:49:12;;;;;;;;;0.50;0.00;;;;;21.37;40.99;101888.34;5078229;28;45496;-55
2021/09/29 13:51:40;;;;;;;;;0.00;0.00;;;;;21.37;41.06;101872.53;5077972;27;45608;-55
2021/09/29 13:54:19;;;;;;;;;1.00;0.00;;;;;21.33;40.67;101874.44;5077899;27;45356;-54